Time;durP1;ratioP1;P1;durP2;ratioP2;P2;SDS_P1;SDS_P2;PMS_P1;PMS_P2;Temp;Humidity;BMP_temperature;BMP_pressure;BME280_temperature;BME280_humidity;BME280_pressure;Samples;Min_cycle;Max_cycle;Signal;HPM_P1;HPM_P2
2022/02/03 00:04:32;;;;;;;1.15;1.05;;;;;;;;;;4393234;32;20151;-61
2022/02/03 00:07:05;;;;;;;0.90;0.82;;;;;;;;;;4406575;32;20069;-61
2022/02/03 00:10:04;;;;;;;0.88;0.88;;;;;;;;;;4405951;32;20054;-62
2022/02/03 00:26:36;;;;;;;1.08;1.00;;;;;;;;;;4406139;32;20084;-61
2022/02/03 00:29:14;;;;;;;1.02;0.90;;;;;;;;;;4392536;32;20079;-62
2022/02/03 00:31:57;;;;;;;1.20;1.10;;;;;;;;;;4393786;32;20077;-62
2022/02/03 00:34:34;;;;;;;0.80;0.80;;;;;;;;;;4405359;32;20092;-63
2022/02/03 00:50:43;;;;;;;0.80;0.80;;;;;;;;;;4394236;32;20070;-62
2022/02/03 00:53:14;;;;;;;1.10;0.90;;;;;;;;;;4405180;32;20077;-69
2022/02/03 00:55:43;;;;;;;1.20;1.02;;;;;;;;;;4405260;32;20495;-62
2022/02/03 00:58:12;;;;;;;1.35;0.90;;;;;;;;;;4394950;32;20511;-62
2022/02/03 01:00:39;;;;;;;0.93;0.93;;;;;;;;;;4408064;32;20062;-62
2022/02/03 01:03:05;;;;;;;1.00;1.00;;;;;;;;;;4407989;32;20147;-62
2022/02/03 01:05:32;;;;;;;1.20;1.10;;;;;;;;;;4407498;32;20080;-62
2022/02/03 01:08:04;;;;;;;0.88;0.85;;;;;;;;;;4395194;32;20529;-62
2022/02/03 01:10:38;;;;;;;1.20;1.10;;;;;;;;;;4407928;32;20080;-61
2022/02/03 01:13:11;;;;;;;0.70;0.70;;;;;;;;;;4407746;32;20077;-61
2022/02/03 01:15:50;;;;;;;0.98;0.90;;;;;;;;;;4407612;32;20524;-63
2022/02/03 01:37:37;;;;;;;1.25;1.00;;;;;;;;;;4395107;32;20089;-62
2022/02/03 01:43:21;;;;;;;1.05;1.02;;;;;;;;;;4407311;32;20149;-61
2022/02/03 01:48:33;;;;;;;1.50;1.10;;;;;;;;;;4408589;32;20121;-61
2022/02/03 01:53:47;;;;;;;2.00;1.00;;;;;;;;;;4407631;32;20103;-61
2022/02/03 01:56:16;;;;;;;1.15;1.10;;;;;;;;;;4382240;32;20154;-61
2022/02/03 01:58:46;;;;;;;1.20;1.00;;;;;;;;;;4406996;32;20562;-62
2022/02/03 02:01:25;;;;;;;0.88;0.88;;;;;;;;;;4408600;32;20602;-62
2022/02/03 02:04:07;;;;;;;0.85;0.85;;;;;;;;;;4408452;32;20439;-61
2022/02/03 02:06:52;;;;;;;1.30;1.20;;;;;;;;;;4394338;32;20069;-62
2022/02/03 02:09:25;;;;;;;0.95;0.95;;;;;;;;;;4406799;32;20499;-61
2022/02/03 02:12:46;;;;;;;1.17;1.08;;;;;;;;;;4408422;32;20093;-60
2022/02/03 02:15:42;;;;;;;1.90;1.20;;;;;;;;;;4405858;32;20154;-61
2022/02/03 02:43:52;;;;;;;1.00;0.90;;;;;;;;;;4403465;32;20062;-62
2022/02/03 02:46:27;;;;;;;1.20;1.10;;;;;;;;;;4394327;32;20069;-62
2022/02/03 02:49:25;;;;;;;1.25;1.00;;;;;;;;;;4381804;32;20081;-62
2022/02/03 02:52:05;;;;;;;0.80;0.80;;;;;;;;;;4406259;32;20112;-62
2022/02/03 03:30:39;;;;;;;0.77;0.77;;;;;;;;;;4406447;32;20089;-60
2022/02/03 03:35:59;;;;;;;1.17;1.00;;;;;;;;;;4405600;32;20081;-62
2022/02/03 03:38:33;;;;;;;1.10;0.82;;;;;;;;;;4394955;32;20095;-63
2022/02/03 03:41:01;;;;;;;0.70;0.52;;;;;;;;;;4393521;32;20090;-61
2022/02/03 03:43:41;;;;;;;0.90;0.90;;;;;;;;;;4405695;32;20077;-61
2022/02/03 03:46:11;;;;;;;1.12;1.05;;;;;;;;;;4405945;32;20511;-61
2022/02/03 03:48:57;;;;;;;0.80;0.75;;;;;;;;;;4393517;32;20092;-61
2022/02/03 03:51:31;;;;;;;0.80;0.80;;;;;;;;;;4405854;32;20500;-61
2022/02/03 03:54:04;;;;;;;1.73;1.15;;;;;;;;;;4393183;32;20154;-62
2022/02/03 03:56:48;;;;;;;0.62;0.62;;;;;;;;;;4393804;32;20161;-62
2022/02/03 04:46:02;;;;;;;0.70;0.70;;;;;;;;;;4405165;32;20146;-63
2022/02/03 04:54:39;;;;;;;0.95;0.85;;;;;;;;;;4394280;32;20081;-61
2022/02/03 04:58:25;;;;;;;0.95;0.80;;;;;;;;;;4405264;32;20096;-61
2022/02/03 05:04:09;;;;;;;1.35;1.10;;;;;;;;;;4394095;32;20080;-61
2022/02/03 05:10:05;;;;;;;1.40;1.10;;;;;;;;;;4392756;32;20157;-61
2022/02/03 05:12:48;;;;;;;1.30;0.85;;;;;;;;;;4405160;32;20100;-61
2022/02/03 05:15:51;;;;;;;0.70;0.70;;;;;;;;;;4406167;32;20145;-62
2022/02/03 05:19:29;;;;;;;0.90;0.77;;;;;;;;;;4404939;32;20088;-61
2022/02/03 05:46:00;;;;;;;0.60;0.50;;;;;;;;;;4407830;32;20082;-61
2022/02/03 05:48:58;;;;;;;1.40;0.80;;;;;;;;;;4397700;32;20132;-62
2022/02/03 06:02:45;;;;;;;0.50;0.50;;;;;;;;;;4407602;32;20099;-62
2022/02/03 06:08:17;;;;;;;0.70;0.65;;;;;;;;;;4408600;32;20084;-61
2022/02/03 06:21:52;;;;;;;0.60;0.60;;;;;;;;;;4407039;32;20091;-62
2022/02/03 06:24:33;;;;;;;0.50;0.50;;;;;;;;;;4394469;32;20084;-60
2022/02/03 06:29:51;;;;;;;0.55;0.55;;;;;;;;;;4407347;32;20085;-61
2022/02/03 06:32:18;;;;;;;0.62;0.60;;;;;;;;;;4406794;32;20525;-62
2022/02/03 06:34:44;;;;;;;0.50;0.50;;;;;;;;;;4393624;32;20149;-61
2022/02/03 06:37:11;;;;;;;1.05;0.80;;;;;;;;;;4406848;32;20076;-60
2022/02/03 06:39:38;;;;;;;0.60;0.60;;;;;;;;;;4406558;32;20065;-60
2022/02/03 06:42:06;;;;;;;0.80;0.80;;;;;;;;;;4406159;32;20518;-62
2022/02/03 06:44:38;;;;;;;0.80;0.60;;;;;;;;;;4394022;32;20081;-61
2022/02/03 06:47:27;;;;;;;0.75;0.60;;;;;;;;;;4407954;32;20072;-61
2022/02/03 06:50:06;;;;;;;0.45;0.40;;;;;;;;;;4406582;32;20078;-60
2022/02/03 06:52:55;;;;;;;0.75;0.70;;;;;;;;;;4406773;32;20158;-61
2022/02/03 06:58:34;;;;;;;0.67;0.67;;;;;;;;;;4407871;32;20083;-61
2022/02/03 07:03:32;;;;;;;0.77;0.40;;;;;;;;;;4407761;32;20145;-61
2022/02/03 07:05:58;;;;;;;0.30;0.30;;;;;;;;;;4406995;32;20093;-60
2022/02/03 07:08:26;;;;;;;0.47;0.47;;;;;;;;;;4394089;32;20104;-62
2022/02/03 07:10:55;;;;;;;0.40;0.40;;;;;;;;;;4406518;32;20111;-61
2022/02/03 07:13:22;;;;;;;0.98;0.85;;;;;;;;;;4407459;32;20069;-61
2022/02/03 07:15:49;;;;;;;0.50;0.50;;;;;;;;;;4407172;32;20099;-62
2022/02/03 07:18:17;;;;;;;0.55;0.47;;;;;;;;;;4393673;32;20495;-62
2022/02/03 07:20:44;;;;;;;0.80;0.80;;;;;;;;;;4407294;32;20061;-62
2022/02/03 07:23:10;;;;;;;0.40;0.40;;;;;;;;;;4393184;32;20497;-62
2022/02/03 07:25:38;;;;;;;0.40;0.32;;;;;;;;;;4406110;32;20153;-61
2022/02/03 07:28:08;;;;;;;0.60;0.60;;;;;;;;;;4405945;32;20085;-61
2022/02/03 07:30:35;;;;;;;0.57;0.57;;;;;;;;;;4405535;32;20096;-62
2022/02/03 07:33:04;;;;;;;0.50;0.50;;;;;;;;;;4380395;32;20069;-62
2022/02/03 07:35:33;;;;;;;0.60;0.43;;;;;;;;;;4405308;32;20109;-62
2022/02/03 07:38:02;;;;;;;0.40;0.40;;;;;;;;;;4407478;32;20074;-62
2022/02/03 07:40:29;;;;;;;0.22;0.22;;;;;;;;;;4380971;32;20455;-61
2022/02/03 07:42:56;;;;;;;0.68;0.50;;;;;;;;;;4406992;32;20089;-60
2022/02/03 07:45:23;;;;;;;0.52;0.50;;;;;;;;;;4406126;32;20425;-61
2022/02/03 07:47:52;;;;;;;0.60;0.52;;;;;;;;;;4380624;32;20454;-60
2022/02/03 07:50:20;;;;;;;0.40;0.40;;;;;;;;;;4392997;32;20575;-62
2022/02/03 07:52:47;;;;;;;0.37;0.37;;;;;;;;;;4405617;32;20081;-61
2022/02/03 07:55:15;;;;;;;0.40;0.40;;;;;;;;;;4392762;32;20077;-60
2022/02/03 07:57:46;;;;;;;0.60;0.60;;;;;;;;;;4392744;32;20069;-61
2022/02/03 08:00:14;;;;;;;0.52;0.52;;;;;;;;;;4405335;32;20165;-61
2022/02/03 08:02:42;;;;;;;0.40;0.40;;;;;;;;;;4405106;32;20439;-61
2022/02/03 08:05:14;;;;;;;0.32;0.30;;;;;;;;;;4405133;32;20062;-61
2022/02/03 08:07:55;;;;;;;0.52;0.50;;;;;;;;;;4405048;32;20531;-61
2022/02/03 08:10:36;;;;;;;0.95;0.65;;;;;;;;;;4405293;32;20080;-63
2022/02/03 08:13:06;;;;;;;0.60;0.60;;;;;;;;;;4406534;32;20167;-62
2022/02/03 08:15:35;;;;;;;0.43;0.43;;;;;;;;;;4405136;32;20540;-61
2022/02/03 08:18:03;;;;;;;0.50;0.50;;;;;;;;;;4405743;32;20171;-60
2022/02/03 08:20:31;;;;;;;0.40;0.40;;;;;;;;;;4392519;32;20165;-60
2022/02/03 08:23:15;;;;;;;0.52;0.52;;;;;;;;;;4406386;32;20502;-61
2022/02/03 08:25:50;;;;;;;0.43;0.43;;;;;;;;;;4405132;32;20447;-60
2022/02/03 08:31:04;;;;;;;0.60;0.60;;;;;;;;;;3834182;37;20070;-60
2022/02/03 08:33:31;;;;;;;1.02;0.70;;;;;;;;;;4390498;32;20594;-60
2022/02/03 08:36:02;;;;;;;0.85;0.60;;;;;;;;;;4404289;32;20553;-61
2022/02/03 08:41:03;;;;;;;0.70;0.70;;;;;;;;;;4391014;32;20077;-60
2022/02/03 08:43:34;;;;;;;1.15;1.02;;;;;;;;;;4390542;32;20073;-61
2022/02/03 08:46:04;;;;;;;0.40;0.40;;;;;;;;;;4404161;32;20084;-60
2022/02/03 08:48:31;;;;;;;0.65;0.50;;;;;;;;;;4390090;32;20082;-61
2022/02/03 08:51:01;;;;;;;1.23;0.70;;;;;;;;;;4377539;32;20491;-60
2022/02/03 08:53:36;;;;;;;1.17;0.80;;;;;;;;;;4404528;32;20086;-60
2022/02/03 08:58:58;;;;;;;1.12;0.68;;;;;;;;;;4404068;32;20157;-62
2022/02/03 09:40:12;;;;;;;1.00;0.60;;;;;;;;;;4391792;32;20086;-61
2022/02/03 09:59:16;;;;;;;1.00;0.70;;;;;;;;;;3857177;37;20447;-61
2022/02/03 10:01:52;;;;;;;0.80;0.80;;;;;;;;;;4418108;32;20633;-60
2022/02/03 10:07:20;;;;;;;0.55;0.50;;;;;;;;;;4406538;32;20467;-61
2022/02/03 10:09:49;;;;;;;0.40;0.40;;;;;;;;;;4405918;32;20091;-62
2022/02/03 10:12:16;;;;;;;1.10;0.65;;;;;;;;;;4418217;32;20066;-62
2022/02/03 10:14:45;;;;;;;0.70;0.70;;;;;;;;;;4405342;32;20070;-61
2022/02/03 10:17:13;;;;;;;0.82;0.73;;;;;;;;;;4417794;32;20152;-61
2022/02/03 10:19:43;;;;;;;0.50;0.50;;;;;;;;;;4405099;32;20141;-62
2022/02/03 10:22:20;;;;;;;0.57;0.50;;;;;;;;;;4417924;32;20510;-62
2022/02/03 10:24:49;;;;;;;;;;;;;;;;;;4418315;32;20491;-61
2022/02/03 10:27:39;;;;;;;0.60;0.60;;;;;;;;;;4417936;32;20383;-62
2022/02/03 10:30:21;;;;;;;0.30;0.30;;;;;;;;;;4417992;32;20177;-63
2022/02/03 10:32:48;;;;;;;0.73;0.50;;;;;;;;;;4417781;32;20088;-61
2022/02/03 10:35:22;;;;;;;0.30;0.30;;;;;;;;;;4419475;32;20083;-61
2022/02/03 11:03:07;;;;;;;0.73;0.57;;;;;;;;;;4417605;32;20516;-61
2022/02/03 11:05:56;;;;;;;0.52;0.52;;;;;;;;;;4416923;32;20069;-62
2022/02/03 11:08:33;;;;;;;0.60;0.60;;;;;;;;;;4417786;32;20073;-60
2022/02/03 11:11:02;;;;;;;0.82;0.68;;;;;;;;;;4408398;32;20515;-61
2022/02/03 11:13:32;;;;;;;0.40;0.40;;;;;;;;;;4394365;32;20507;-61
2022/02/03 11:16:04;;;;;;;0.82;0.60;;;;;;;;;;4396298;32;20058;-61
2022/02/03 11:18:32;;;;;;;0.62;0.47;;;;;;;;;;4408737;32;20154;-62
2022/02/03 11:21:01;;;;;;;0.47;0.47;;;;;;;;;;4407359;32;20153;-62
2022/02/03 11:37:02;;;;;;;0.68;0.68;;;;;;;;;;4406780;32;20514;-61
2022/02/03 11:42:44;;;;;;;0.43;0.40;;;;;;;;;;4408132;32;20513;-61
2022/02/03 11:59:40;;;;;;;0.90;0.73;;;;;;;;;;4395434;32;20451;-62
2022/02/03 12:05:04;;;;;;;1.12;0.60;;;;;;;;;;4408195;32;20084;-61
2022/02/03 12:08:01;;;;;;;1.08;0.80;;;;;;;;;;4396847;32;20081;-61
2022/02/03 12:10:55;;;;;;;0.93;0.90;;;;;;;;;;4396717;32;20105;-60
2022/02/03 12:16:20;;;;;;;0.52;0.52;;;;;;;;;;4406054;32;20508;-63
2022/02/03 12:19:05;;;;;;;1.05;0.77;;;;;;;;;;4406105;32;20081;-61
2022/02/03 12:21:38;;;;;;;1.33;0.95;;;;;;;;;;4393931;32;20072;-61
2022/02/03 12:26:53;;;;;;;1.10;1.08;;;;;;;;;;4406590;32;20085;-60
2022/02/03 12:29:29;;;;;;;0.77;0.77;;;;;;;;;;4406164;32;20076;-61
2022/02/03 12:42:57;;;;;;;1.08;1.00;;;;;;;;;;4407189;32;20072;-62
2022/02/03 12:45:24;;;;;;;1.83;1.40;;;;;;;;;;4405707;32;20507;-61
2022/02/03 12:48:02;;;;;;;1.87;1.50;;;;;;;;;;4393627;32;20070;-62
2022/02/03 12:50:32;;;;;;;3.40;2.42;;;;;;;;;;4381063;32;20081;-61
2022/02/03 12:53:00;;;;;;;1.50;1.37;;;;;;;;;;4393212;32;20089;-62
2022/02/03 12:55:32;;;;;;;1.60;1.50;;;;;;;;;;4405892;32;20097;-61
2022/02/03 12:58:02;;;;;;;1.77;1.60;;;;;;;;;;4404914;32;20484;-61
2022/02/03 13:00:38;;;;;;;1.60;1.30;;;;;;;;;;4393929;32;20162;-62
2022/02/03 13:03:05;;;;;;;1.73;1.40;;;;;;;;;;4405516;32;20157;-64
2022/02/03 13:05:34;;;;;;;2.05;1.70;;;;;;;;;;4405904;32;20073;-62
2022/02/03 13:08:05;;;;;;;2.00;1.50;;;;;;;;;;4393235;32;20145;-62
2022/02/03 13:10:35;;;;;;;1.67;1.50;;;;;;;;;;4392840;32;20077;-62
2022/02/03 13:13:21;;;;;;;1.90;1.48;;;;;;;;;;4405669;32;20173;-62
2022/02/03 13:15:49;;;;;;;2.00;1.42;;;;;;;;;;4405503;32;20144;-62
2022/02/03 13:18:29;;;;;;;1.80;1.45;;;;;;;;;;4393350;32;20097;-62
2022/02/03 13:21:08;;;;;;;2.58;1.55;;;;;;;;;;4405295;32;20065;-63
2022/02/03 13:23:40;;;;;;;2.78;1.65;;;;;;;;;;4406954;32;20081;-63
2022/02/03 13:26:14;;;;;;;1.30;1.20;;;;;;;;;;4406820;32;20533;-63
2022/02/03 13:28:58;;;;;;;2.28;1.65;;;;;;;;;;4394487;32;20450;-63
2022/02/03 13:31:36;;;;;;;2.62;1.40;;;;;;;;;;4407654;32;20092;-62
2022/02/03 13:34:14;;;;;;;1.45;1.35;;;;;;;;;;4394487;32;20073;-61
2022/02/03 13:36:50;;;;;;;1.62;1.52;;;;;;;;;;4405257;32;20519;-62
2022/02/03 13:39:29;;;;;;;2.00;1.40;;;;;;;;;;4406721;32;20152;-61
2022/02/03 13:42:04;;;;;;;1.60;1.50;;;;;;;;;;4393805;32;20624;-62
2022/02/03 13:44:31;;;;;;;1.95;1.55;;;;;;;;;;4405047;32;20154;-64
2022/02/03 13:46:58;;;;;;;2.83;1.40;;;;;;;;;;4405276;32;20518;-63
2022/02/03 13:49:27;;;;;;;1.20;1.10;;;;;;;;;;4406583;32;20074;-64
2022/02/03 13:52:06;;;;;;;1.75;1.65;;;;;;;;;;4405233;32;20061;-64
2022/02/03 14:22:14;;;;;;;2.22;1.77;;;;;;;;;;4406782;32;20149;-62
2022/02/03 14:27:29;;;;;;;2.25;1.65;;;;;;;;;;4406048;32;20105;-63
2022/02/03 14:30:13;;;;;;;1.65;1.30;;;;;;;;;;4404938;32;20069;-61
2022/02/03 14:32:41;;;;;;;1.40;1.27;;;;;;;;;;4405169;32;20525;-63
2022/02/03 14:35:10;;;;;;;2.17;1.50;;;;;;;;;;4405856;32;20081;-62
2022/02/03 14:37:47;;;;;;;1.20;1.08;;;;;;;;;;4379900;32;20158;-62
2022/02/03 14:40:29;;;;;;;1.77;1.17;;;;;;;;;;4393381;32;20133;-63
2022/02/03 14:42:58;;;;;;;1.42;1.20;;;;;;;;;;4404640;32;20429;-62
2022/02/03 14:45:25;;;;;;;1.30;1.20;;;;;;;;;;4408134;32;20088;-61
2022/02/03 14:47:51;;;;;;;1.27;1.17;;;;;;;;;;4407668;32;20146;-61
2022/02/03 14:50:19;;;;;;;1.37;1.15;;;;;;;;;;4409181;32;20073;-61
2022/02/03 14:52:57;;;;;;;1.48;1.30;;;;;;;;;;4395852;32;20510;-65
2022/02/03 14:58:25;;;;;;;1.52;1.12;;;;;;;;;;4408623;32;20088;-61
2022/02/03 15:00:53;;;;;;;1.30;1.20;;;;;;;;;;4408019;32;20089;-61
2022/02/03 15:03:22;;;;;;;0.73;0.73;;;;;;;;;;4407617;32;20079;-62
2022/02/03 15:05:49;;;;;;;0.88;0.85;;;;;;;;;;4407392;32;20082;-62
2022/02/03 15:08:19;;;;;;;1.10;1.00;;;;;;;;;;4395025;32;20100;-61
2022/02/03 15:10:52;;;;;;;1.27;1.12;;;;;;;;;;4407333;32;20452;-62
2022/02/03 15:13:34;;;;;;;0.80;0.80;;;;;;;;;;4382995;32;20158;-62
2022/02/03 15:16:01;;;;;;;1.33;1.00;;;;;;;;;;4384058;32;20069;-62
2022/02/03 15:18:31;;;;;;;1.10;1.00;;;;;;;;;;4394739;32;20231;-61
2022/02/03 15:20:59;;;;;;;1.12;0.90;;;;;;;;;;4407347;32;20579;-62
2022/02/03 15:23:26;;;;;;;1.15;0.80;;;;;;;;;;4407034;32;20508;-62
2022/02/03 15:25:52;;;;;;;1.23;0.90;;;;;;;;;;4407297;32;20081;-61
2022/02/03 15:28:20;;;;;;;1.75;1.00;;;;;;;;;;4394953;32;20089;-61
2022/02/03 15:30:47;;;;;;;1.83;1.10;;;;;;;;;;4407976;32;20096;-61
2022/02/03 15:33:15;;;;;;;1.30;0.75;;;;;;;;;;4407594;32;20145;-62
2022/02/03 15:35:43;;;;;;;1.65;1.15;;;;;;;;;;4394624;32;20153;-62
2022/02/03 15:38:15;;;;;;;1.42;1.12;;;;;;;;;;4407266;32;20069;-63
2022/02/03 15:40:42;;;;;;;0.95;0.85;;;;;;;;;;4407635;32;20107;-63
2022/02/03 15:43:38;;;;;;;1.23;0.98;;;;;;;;;;4407362;32;20078;-62
2022/02/03 15:46:01;;;;;;;1.10;0.60;;;;;;;;;;4406760;32;20174;-61
2022/02/03 15:48:35;;;;;;;0.60;0.50;;;;;;;;;;4408200;32;20081;-62
2022/02/03 16:04:06;;;;;;;0.50;0.40;;;;;;;;;;4394441;32;20069;-62
2022/02/03 16:17:31;;;;;;;0.85;0.50;;;;;;;;;;4407919;32;20077;-62
2022/02/03 16:23:18;;;;;;;;;;;;;;;;;;4400688;32;20096;-62
2022/02/03 16:50:33;;;;;;;1.35;0.73;;;;;;;;;;4406155;32;20174;-62
2022/02/03 16:53:01;;;;;;;0.75;0.50;;;;;;;;;;4407045;32;20073;-63
2022/02/03 16:55:33;;;;;;;0.60;0.60;;;;;;;;;;4393932;32;20088;-63
2022/02/03 16:58:02;;;;;;;0.57;0.52;;;;;;;;;;4405785;32;20495;-62
2022/02/03 17:00:29;;;;;;;0.80;0.60;;;;;;;;;;4406264;32;20057;-62
2022/02/03 17:02:56;;;;;;;1.02;0.60;;;;;;;;;;4393957;32;20504;-62
2022/02/03 17:05:22;;;;;;;0.43;0.30;;;;;;;;;;4406201;32;20097;-63
2022/02/03 17:07:49;;;;;;;0.88;0.60;;;;;;;;;;4407648;32;20161;-63
2022/02/03 17:10:16;;;;;;;1.10;0.50;;;;;;;;;;4407661;32;20099;-63
2022/02/03 17:12:43;;;;;;;0.65;0.65;;;;;;;;;;4406157;32;20081;-62
2022/02/03 17:15:10;;;;;;;1.00;0.80;;;;;;;;;;4406877;32;20081;-61
2022/02/03 17:17:36;;;;;;;0.47;0.47;;;;;;;;;;4405392;32;20072;-62
2022/02/03 17:20:04;;;;;;;0.55;0.50;;;;;;;;;;4405409;32;20093;-61
2022/02/03 17:22:36;;;;;;;0.60;0.40;;;;;;;;;;4392845;32;20100;-62
2022/02/03 17:25:09;;;;;;;1.10;0.57;;;;;;;;;;4394535;32;20066;-62
2022/02/03 17:27:43;;;;;;;0.47;0.47;;;;;;;;;;4405423;32;20458;-62
2022/02/03 17:30:21;;;;;;;0.70;0.50;;;;;;;;;;4405395;32;20092;-62
2022/02/03 18:03:30;;;;;;;0.63;0.63;;;;;;;;;;4406661;32;20173;-62
2022/02/03 18:06:39;;;;;;;1.20;0.88;;;;;;;;;;4405593;32;20253;-61
2022/02/03 18:17:26;;;;;;;0.30;0.30;;;;;;;;;;4405523;32;20085;-63
2022/02/03 18:31:01;;;;;;;0.60;0.60;;;;;;;;;;4409163;32;20443;-62
2022/02/03 18:36:05;;;;;;;0.55;0.55;;;;;;;;;;4396301;32;20077;-62
2022/02/03 18:52:10;;;;;;;0.90;0.73;;;;;;;;;;4353293;32;20196;-62
2022/02/03 18:55:54;;;;;;;0.82;0.52;;;;;;;;;;4400414;32;20092;-62
2022/02/03 18:57:48;;;;;;;0.68;0.60;;;;;;;;;;4402026;32;20160;-61
2022/02/03 19:03:17;;;;;;;0.98;0.62;;;;;;;;;;4407490;32;20503;-64
2022/02/03 20:04:58;;;;;;;1.50;0.80;;;;;;;;;;4419103;32;20108;-62
2022/02/03 20:10:46;;;;;;;0.77;0.73;;;;;;;;;;4393628;32;20089;-62
2022/02/03 20:12:44;;;;;;;0.82;0.70;;;;;;;;;;4394294;32;20081;-62
2022/02/03 20:15:12;;;;;;;0.93;0.90;;;;;;;;;;4380617;32;20137;-62
2022/02/03 20:17:39;;;;;;;1.35;0.80;;;;;;;;;;4405740;32;20108;-63
2022/02/03 20:20:06;;;;;;;0.95;0.77;;;;;;;;;;4405232;32;20092;-62
2022/02/03 20:22:37;;;;;;;0.82;0.80;;;;;;;;;;4405267;32;20076;-62
2022/02/03 20:25:05;;;;;;;0.70;0.70;;;;;;;;;;4404838;32;20492;-63
2022/02/03 20:27:32;;;;;;;0.80;0.70;;;;;;;;;;4404749;32;20089;-62
2022/02/03 20:29:59;;;;;;;0.90;0.80;;;;;;;;;;4404583;32;20068;-62
2022/02/03 20:32:28;;;;;;;0.90;0.90;;;;;;;;;;4404828;32;20448;-63
2022/02/03 20:34:56;;;;;;;0.68;0.68;;;;;;;;;;4404954;32;20089;-62
2022/02/03 20:37:23;;;;;;;1.23;0.98;;;;;;;;;;4397543;32;20068;-64
2022/02/03 20:39:50;;;;;;;0.88;0.73;;;;;;;;;;4381968;32;20077;-62
2022/02/03 20:42:16;;;;;;;1.05;0.85;;;;;;;;;;4382468;32;20484;-62
2022/02/03 20:44:49;;;;;;;1.52;1.00;;;;;;;;;;4394226;32;20477;-62
2022/02/03 20:47:15;;;;;;;0.82;0.70;;;;;;;;;;4382547;32;20061;-63
2022/02/03 20:49:43;;;;;;;0.98;0.95;;;;;;;;;;4394669;32;20092;-63
2022/02/03 20:52:10;;;;;;;1.15;0.88;;;;;;;;;;4382586;32;20081;-63
2022/02/03 20:54:37;;;;;;;1.17;1.10;;;;;;;;;;4381822;32;20526;-62
2022/02/03 20:57:04;;;;;;;1.10;0.98;;;;;;;;;;4382044;32;20073;-61
2022/02/03 21:02:27;;;;;;;1.08;0.95;;;;;;;;;;4408907;32;20149;-63
2022/02/03 21:05:05;;;;;;;0.80;0.80;;;;;;;;;;4394665;32;20096;-61
2022/02/03 21:07:35;;;;;;;1.15;1.00;;;;;;;;;;4382955;32;20077;-63
2022/02/03 21:10:06;;;;;;;1.27;1.17;;;;;;;;;;4394052;32;20440;-63
2022/02/03 21:12:33;;;;;;;1.40;1.20;;;;;;;;;;4369513;32;20070;-61
2022/02/03 21:15:00;;;;;;;1.12;1.02;;;;;;;;;;4407940;32;20080;-63
2022/02/03 21:17:30;;;;;;;0.80;0.80;;;;;;;;;;4408044;32;20161;-62
2022/02/03 21:20:05;;;;;;;0.77;0.77;;;;;;;;;;4407870;32;20076;-62
2022/02/03 21:22:32;;;;;;;1.90;1.00;;;;;;;;;;4369909;32;20077;-62
2022/02/03 21:25:03;;;;;;;0.98;0.88;;;;;;;;;;4407505;32;20168;-63
2022/02/03 21:27:32;;;;;;;1.15;1.05;;;;;;;;;;4382767;32;20078;-63
2022/02/03 21:30:03;;;;;;;1.10;1.00;;;;;;;;;;4381361;32;20073;-62
2022/02/03 21:32:29;;;;;;;0.88;0.88;;;;;;;;;;4394055;32;20166;-63
2022/02/03 21:34:56;;;;;;;1.10;1.00;;;;;;;;;;4407862;32;20073;-63
2022/02/03 21:37:23;;;;;;;1.33;1.10;;;;;;;;;;4393865;32;20097;-62
2022/02/03 21:39:54;;;;;;;1.30;1.15;;;;;;;;;;4393955;32;20089;-63
2022/02/03 21:42:21;;;;;;;0.90;0.85;;;;;;;;;;4407679;32;20454;-63
2022/02/03 21:44:48;;;;;;;1.17;1.10;;;;;;;;;;4393416;32;20511;-63
2022/02/03 21:47:15;;;;;;;0.98;0.95;;;;;;;;;;4393521;32;20085;-62
2022/02/03 21:49:41;;;;;;;1.35;1.20;;;;;;;;;;4380814;32;20577;-63
2022/02/03 21:52:09;;;;;;;0.70;0.70;;;;;;;;;;4393424;32;20548;-62
2022/02/03 21:54:37;;;;;;;1.10;1.00;;;;;;;;;;4393635;32;20519;-61
2022/02/03 21:57:04;;;;;;;1.62;0.90;;;;;;;;;;4407442;32;20106;-63
2022/02/03 21:59:31;;;;;;;1.23;1.10;;;;;;;;;;4380487;32;20444;-62
2022/02/03 22:01:57;;;;;;;1.00;0.90;;;;;;;;;;4393160;32;20170;-62
2022/02/03 22:04:24;;;;;;;1.55;1.08;;;;;;;;;;4407518;32;20087;-62
2022/02/03 22:06:51;;;;;;;1.17;1.05;;;;;;;;;;4380713;32;20523;-63
2022/02/03 22:09:17;;;;;;;0.75;0.75;;;;;;;;;;4380678;32;20523;-62
2022/02/03 22:11:44;;;;;;;1.12;1.02;;;;;;;;;;4393216;32;20096;-62
2022/02/03 22:14:11;;;;;;;1.20;0.88;;;;;;;;;;4407017;32;20072;-63
2022/02/03 22:16:37;;;;;;;1.00;1.00;;;;;;;;;;4407739;32;20093;-62
2022/02/03 22:19:04;;;;;;;1.10;1.00;;;;;;;;;;4393275;32;20088;-63
2022/02/03 22:21:58;;;;;;;1.60;1.20;;;;;;;;;;4393423;32;20085;-63
2022/02/03 22:44:11;;;;;;;1.00;0.90;;;;;;;;;;4329703;32;20079;-63
2022/02/03 22:46:52;;;;;;;0.82;0.75;;;;;;;;;;4393541;32;20534;-62
2022/02/03 22:49:19;;;;;;;0.90;0.75;;;;;;;;;;4393022;32;20069;-62
2022/02/03 22:51:46;;;;;;;0.70;0.70;;;;;;;;;;4380637;32;20157;-63
2022/02/03 22:54:13;;;;;;;0.80;0.80;;;;;;;;;;4381027;32;20073;-62
2022/02/03 22:56:40;;;;;;;0.88;0.75;;;;;;;;;;4380790;32;20084;-62
2022/02/03 23:02:00;;;;;;;0.73;0.60;;;;;;;;;;4388784;32;20104;-63
2022/02/03 23:04:27;;;;;;;0.73;0.60;;;;;;;;;;4392683;32;20085;-62
2022/02/03 23:07:04;;;;;;;0.93;0.73;;;;;;;;;;4392780;32;20074;-62
2022/02/03 23:14:51;;;;;;;1.00;0.90;;;;;;;;;;4406608;32;20073;-63
2022/02/03 23:18:03;;;;;;;1.05;0.88;;;;;;;;;;4392867;32;20081;-63
2022/02/03 23:20:22;;;;;;;1.33;0.82;;;;;;;;;;4387430;32;20081;-62
2022/02/03 23:22:50;;;;;;;1.00;0.90;;;;;;;;;;4380989;32;20089;-61
2022/02/03 23:25:19;;;;;;;0.93;0.90;;;;;;;;;;4379867;32;20089;-61
2022/02/03 23:30:21;;;;;;;0.65;0.60;;;;;;;;;;4392286;32;20139;-62
2022/02/03 23:32:50;;;;;;;0.55;0.52;;;;;;;;;;4392142;32;20605;-63
2022/02/03 23:35:24;;;;;;;0.80;0.75;;;;;;;;;;4392404;32;20085;-62
2022/02/03 23:38:10;;;;;;;1.00;0.68;;;;;;;;;;4393696;32;20075;-63
